Valiant Energy — SVA6487 — position and weather

sailwx.info

Track history (hours):
 
Tides and Currents Weather Stations Pressure Air Temp Water Temp Dewpoint Dewpoint Depression Visibility Wind Speed Wind Dir Waves Ship Positions

Valiant Energy

Last reported at 2017-Sep-25 19:00 UTC. Time now 2017-Sep-25 19:09 UTC.
Position N 40°48' E 024°30'.

Length 65 m.

Type: Ship (hazmat cat B). MMSI: 239885800.

Date/timePositionNaut miles runAvg speedWind from/ knotsBaromVisibWave heightAir tempDewpointWater temp
2017-Sep-25 19:00N 40°48' E 024°30'0 0.0
2017-Sep-25 18:30N 40°48' E 024°30'0 0.0
2017-Sep-25 18:00N 40°48' E 024°30'0 0.0
2017-Sep-25 17:30N 40°48' E 024°30'0 0.0
2017-Sep-25 17:00N 40°48' E 024°30'0 0.0
2017-Sep-25 16:30N 40°48' E 024°30'0 0.0
2017-Sep-25 16:00N 40°48' E 024°30'0 0.0
2017-Sep-25 15:30N 40°48' E 024°30'0 0.0
2017-Sep-25 15:00N 40°48' E 024°30'0 0.0
2017-Sep-25 14:30N 40°48' E 024°30'4 7.8
2017-Sep-25 14:00N 40°52' E 024°30'5 9.8
2017-Sep-25 13:30N 40°57' E 024°29'0 0.8
2017-Sep-25 13:00N 40°57' E 024°28'0 0.0
2017-Sep-25 12:30N 40°57' E 024°28'0 0.0
2017-Sep-25 12:00N 40°57' E 024°28'0 0.0
2017-Sep-25 11:30N 40°57' E 024°28'0 0.0
2017-Sep-25 11:00N 40°57' E 024°28'0 0.0
2017-Sep-25 10:30N 40°57' E 024°28'0 0.0
2017-Sep-25 10:00N 40°57' E 024°28'0 0.0
2017-Sep-25 09:30N 40°57' E 024°28'0 0.0
2017-Sep-25 09:00N 40°57' E 024°28'0 0.0
2017-Sep-25 08:30N 40°57' E 024°28'0 0.0
2017-Sep-25 08:00N 40°57' E 024°28'0 0.0
2017-Sep-25 07:30N 40°57' E 024°28'0 0.0
2017-Sep-25 07:00N 40°57' E 024°28'1 1.1
2017-Sep-25 06:30N 40°57' E 024°29'5 9.6
2017-Sep-25 06:00N 40°52' E 024°29'4 6.8
2017-Sep-25 05:28N 40°48' E 024°30'0 0.0
2017-Sep-25 04:58N 40°48' E 024°30'0 0.0
2017-Sep-25 04:28N 40°48' E 024°30'0 0.0
2017-Sep-25 03:57N 40°48' E 024°30'0 0.0
2017-Sep-25 03:24N 40°48' E 024°30'0 0.0
2017-Sep-25 02:51N 40°48' E 024°30'0 0.0
2017-Sep-25 02:21N 40°48' E 024°30'0 0.0
2017-Sep-25 01:57N 40°48' E 024°30'0 0.0
2017-Sep-25 01:27N 40°48' E 024°30'0 0.0
2017-Sep-25 00:51N 40°48' E 024°30'0 0.0
2017-Sep-25 00:15N 40°48' E 024°30'0 0.1
2017-Sep-25 00:00N 40°48' E 024°30'0 0.0
2017-Sep-24 23:27N 40°48' E 024°30'0 0.0
2017-Sep-24 22:57N 40°48' E 024°30'0 0.0
2017-Sep-24 22:30N 40°48' E 024°30'0 0.0
2017-Sep-24 22:00N 40°48' E 024°30'0 0.0
2017-Sep-24 21:30N 40°48' E 024°30'0 0.0
2017-Sep-24 21:00N 40°48' E 024°30'0 0.0
2017-Sep-24 20:30N 40°48' E 024°30'0 0.0
2017-Sep-24 20:00N 40°48' E 024°30'0 0.0
2017-Sep-24 19:30N 40°48' E 024°30'0 0.0
2017-Sep-24 19:00N 40°48' E 024°30'0 0.0
2017-Sep-24 18:30N 40°48' E 024°30'0 0.0
2017-Sep-24 18:00N 40°48' E 024°30'0 0.0
2017-Sep-24 17:30N 40°48' E 024°30'0 0.0
2017-Sep-24 17:00N 40°48' E 024°30'0 0.0
2017-Sep-24 16:30N 40°48' E 024°30'0 0.0
2017-Sep-24 16:00N 40°48' E 024°30'0 0.0
2017-Sep-24 15:30N 40°48' E 024°30'0 0.0
2017-Sep-24 15:00N 40°48' E 024°30'0 0.0
2017-Sep-24 14:30N 40°48' E 024°30'0 0.0
2017-Sep-24 14:00N 40°48' E 024°30'0 0.0
2017-Sep-24 13:30N 40°48' E 024°30'0 0.0
2017-Sep-24 13:00N 40°48' E 024°30'0 0.0
2017-Sep-24 12:30N 40°48' E 024°30'0 0.0
2017-Sep-24 12:00N 40°48' E 024°30'0 0.0
2017-Sep-24 11:30N 40°48' E 024°30'0 0.0
2017-Sep-24 11:00N 40°48' E 024°30'2 3.2
2017-Sep-24 10:30N 40°50' E 024°30'510.0
2017-Sep-24 10:00N 40°55' E 024°29'2 4.7
2017-Sep-24 09:30N 40°57' E 024°28'0 0.0
2017-Sep-24 09:00N 40°57' E 024°28'0 0.0
2017-Sep-24 08:30N 40°57' E 024°28'0 0.0
2017-Sep-24 08:00N 40°57' E 024°28'0 0.0
2017-Sep-24 07:30N 40°57' E 024°28'0 0.0
2017-Sep-24 07:00N 40°57' E 024°28'0 0.0
2017-Sep-24 06:30N 40°57' E 024°28'0 0.0
2017-Sep-24 06:00N 40°57' E 024°28'0 0.0
2017-Sep-24 05:30N 40°57' E 024°28'3 5.4
2017-Sep-24 05:00N 40°54' E 024°29'510.0
2017-Sep-24 04:30N 40°49' E 024°30'1 2.5
2017-Sep-24 04:00N 40°48' E 024°30'0 0.0
2017-Sep-24 03:27N 40°48' E 024°30'0 0.0
2017-Sep-24 03:00N 40°48' E 024°30'0 0.0
2017-Sep-24 02:27N 40°48' E 024°30'0 0.0
2017-Sep-24 02:00N 40°48' E 024°30'0 0.0
2017-Sep-24 01:30N 40°48' E 024°30'0 0.0
2017-Sep-24 01:00N 40°48' E 024°30'0 0.0
2017-Sep-24 00:27N 40°48' E 024°30'0 0.0
2017-Sep-23 23:57N 40°48' E 024°30'0 0.0
2017-Sep-23 23:30N 40°48' E 024°30'0 0.0
2017-Sep-23 23:00N 40°48' E 024°30'0 0.0
2017-Sep-23 22:30N 40°48' E 024°30'0 0.0
2017-Sep-23 22:00N 40°48' E 024°30'0 0.0
2017-Sep-23 21:30N 40°48' E 024°30'0 0.0
2017-Sep-23 21:00N 40°48' E 024°30'0 0.0
2017-Sep-23 20:30N 40°48' E 024°30'0 0.0
2017-Sep-23 20:00N 40°48' E 024°30'0 0.0
2017-Sep-22 01:59N 40°48' E 024°30'0 0.0
2017-Sep-22 01:29N 40°48' E 024°30'0 0.0
2017-Sep-22 00:59N 40°48' E 024°30'0 0.0
2017-Sep-22 00:23N 40°48' E 024°30'0 0.0
2017-Sep-21 23:56N 40°48' E 024°30'0 0.0
2017-Sep-21 23:29N 40°48' E 024°30'0 0.0
2017-Sep-21 22:58N 40°48' E 024°30'0 0.0
2017-Sep-21 22:28N 40°48' E 024°30'0 0.0
2017-Sep-21 21:58N 40°48' E 024°30'0 0.0
2017-Sep-21 21:28N 40°48' E 024°30'0 0.0
2017-Sep-21 20:58N 40°48' E 024°30'0 0.0
2017-Sep-21 20:28N 40°48' E 024°30'0 0.0
2017-Sep-21 19:58N 40°48' E 024°30'0 0.0
2017-Sep-21 19:28N 40°48' E 024°30'0 0.0
2017-Sep-21 18:55N 40°48' E 024°30'0 0.0
2017-Sep-21 18:28N 40°48' E 024°30'0 0.0
2017-Sep-21 17:58N 40°48' E 024°30'0 0.0
2017-Sep-21 17:28N 40°48' E 024°30'0 0.0
2017-Sep-21 16:58N 40°48' E 024°30'0 0.0
2017-Sep-21 16:28N 40°48' E 024°30'0 0.0
2017-Sep-21 15:58N 40°48' E 024°30'0 0.0
2017-Sep-21 15:28N 40°48' E 024°30'0 0.0
2017-Sep-21 14:58N 40°48' E 024°30'0 0.0
2017-Sep-21 14:28N 40°48' E 024°30'0 0.0
2017-Sep-21 13:58N 40°48' E 024°30'0 0.0
2017-Sep-21 13:28N 40°48' E 024°30'0 0.6
2017-Sep-21 13:00N 40°48' E 024°30'0 0.5
2017-Sep-21 12:30N 40°48' E 024°30'0 0.9
2017-Sep-21 12:00N 40°48' E 024°30'0 0.0
2017-Sep-21 11:30N 40°48' E 024°30'4 8.4
2017-Sep-21 11:00N 40°52' E 024°30'5 9.3
2017-Sep-21 10:30N 40°57' E 024°28'0 0.2
2017-Sep-21 10:00N 40°57' E 024°28'0 0.0
2017-Sep-21 09:30N 40°57' E 024°28'0 0.0
2017-Sep-21 09:00N 40°57' E 024°28'0 0.0
2017-Sep-21 08:30N 40°57' E 024°28'0 0.0
2017-Sep-21 08:00N 40°57' E 024°28'0 0.0
2017-Sep-21 07:31N 40°57' E 024°28'0 0.0
2017-Sep-21 07:00N 40°57' E 024°28'0 0.0
2017-Sep-21 06:31N 40°57' E 024°28'0 0.2
2017-Sep-21 06:00N 40°57' E 024°28'5 9.2
2017-Sep-21 05:31N 40°52' E 024°30'4 8.5
2017-Sep-21 05:00N 40°48' E 024°30'0 0.1
2017-Sep-21 04:30N 40°48' E 024°30'1 1.3
2017-Sep-21 04:00N 40°48' E 024°29'0 0.0
2017-Sep-21 03:30N 40°48' E 024°29'0 0.0
2017-Sep-21 03:00N 40°48' E 024°29'0 0.0
2017-Sep-21 02:31N 40°48' E 024°29'0 0.0
2017-Sep-21 02:00N 40°48' E 024°29'0 0.0
2017-Sep-21 01:30N 40°48' E 024°29'0 0.0
2017-Sep-21 01:00N 40°48' E 024°29'0 0.0
2017-Sep-21 00:30N 40°48' E 024°29'0 0.0
2017-Sep-21 00:01N 40°48' E 024°29'0 0.0
2017-Sep-20 23:05N 40°48' E 024°29'0 0.1
2017-Sep-20 23:00N 40°48' E 024°29'0 0.0
2017-Sep-20 22:30N 40°48' E 024°29'0 0.0
2017-Sep-20 22:00N 40°48' E 024°29'0 0.0
2017-Sep-20 21:30N 40°48' E 024°29'0 0.0
2017-Sep-20 21:00N 40°48' E 024°29'0 0.1
2017-Sep-20 20:30N 40°48' E 024°29'1 1.4
2017-Sep-20 19:59N 40°48' E 024°30'0 0.0
2017-Sep-20 19:29N 40°48' E 024°30'0 0.0
2017-Sep-20 18:59N 40°48' E 024°30'0 0.0
2017-Sep-20 18:29N 40°48' E 024°30'0 0.0
2017-Sep-20 17:59N 40°48' E 024°30'0 0.0
2017-Sep-20 17:29N 40°48' E 024°30'0 0.0
2017-Sep-20 16:59N 40°48' E 024°30'0 0.0
2017-Sep-20 16:29N 40°48' E 024°30'0 0.2
2017-Sep-20 16:00N 40°48' E 024°30'1 2.4
2017-Sep-20 15:30N 40°49' E 024°30'5 9.9
2017-Sep-20 15:00N 40°54' E 024°29'3 2.8
2017-Sep-20 14:00N 40°57' E 024°28'0 0.0
2017-Sep-20 13:30N 40°57' E 024°28'0 0.0
2017-Sep-20 13:00N 40°57' E 024°28'0 0.0
2017-Sep-20 12:30N 40°57' E 024°28'0 0.0
2017-Sep-20 12:00N 40°57' E 024°28'0 0.0
2017-Sep-20 11:28N 40°57' E 024°28'0 0.0
2017-Sep-20 11:00N 40°57' E 024°28'0 0.0
2017-Sep-20 10:30N 40°57' E 024°28'0 0.0
2017-Sep-20 10:00N 40°57' E 024°28'0 0.0
2017-Sep-20 09:30N 40°57' E 024°28'0 0.0
2017-Sep-20 09:00N 40°57' E 024°28'0 0.0
2017-Sep-20 08:30N 40°57' E 024°28'0 0.0
2017-Sep-20 08:00N 40°57' E 024°28'0 0.0
2017-Sep-20 07:30N 40°57' E 024°28'0 0.0
2017-Sep-20 07:00N 40°57' E 024°28'0 0.0
2017-Sep-20 06:30N 40°57' E 024°28'0 0.0
2017-Sep-20 06:00N 40°57' E 024°28'2 4.5
2017-Sep-20 05:30N 40°55' E 024°29'510.3
2017-Sep-20 05:00N 40°50' E 024°30'2 3.1
2017-Sep-20 04:30N 40°48' E 024°30'0 0.0
2017-Sep-20 04:00N 40°48' E 024°30'0 0.0
2017-Sep-20 03:30N 40°48' E 024°30'0 0.0
2017-Sep-20 03:00N 40°48' E 024°30'0 0.0
2017-Sep-20 02:30N 40°48' E 024°30'0 0.0
2017-Sep-20 02:00N 40°48' E 024°30'0 0.0
2017-Sep-20 01:30N 40°48' E 024°30'0 0.0
2017-Sep-20 01:00N 40°48' E 024°30'0 0.0
2017-Sep-20 00:30N 40°48' E 024°30'0 0.0
2017-Sep-19 23:57N 40°48' E 024°30'0 0.0
2017-Sep-19 23:30N 40°48' E 024°30'0 0.0
2017-Sep-19 22:57N 40°48' E 024°30'0 0.0
2017-Sep-19 22:30N 40°48' E 024°30'0 0.0
2017-Sep-19 22:00N 40°48' E 024°30'0 0.0
2017-Sep-19 21:30N 40°48' E 024°30'0 0.0
2017-Sep-19 21:00N 40°48' E 024°30'0 0.0
2017-Sep-19 20:30N 40°48' E 024°30'0 0.0
2017-Sep-19 20:00N 40°48' E 024°30'0 0.0
2017-Sep-19 19:30N 40°48' E 024°30'0 0.0
2017-Sep-19 19:00N 40°48' E 024°30'0 0.0
2017-Sep-19 18:30N 40°48' E 024°30'0 0.0
2017-Sep-19 18:00N 40°48' E 024°30'0 0.0
2017-Sep-19 17:30N 40°48' E 024°30'0 0.0
2017-Sep-19 17:00N 40°48' E 024°30'0 0.0
2017-Sep-19 16:30N 40°48' E 024°30'0 0.0
2017-Sep-19 16:00N 40°48' E 024°30'0 0.0
2017-Sep-19 15:30N 40°48' E 024°30'0 0.1
2017-Sep-19 15:01N 40°48' E 024°30'5 9.6
2017-Sep-19 14:30N 40°53' E 024°30'4 8.3
2017-Sep-19 14:00N 40°57' E 024°28'0 0.0
2017-Sep-19 13:30N 40°57' E 024°28'0 0.0
2017-Sep-19 13:00N 40°57' E 024°28'0 0.0
2017-Sep-19 12:30N 40°57' E 024°28'0 0.0
2017-Sep-19 12:00N 40°57' E 024°28'0 0.0
2017-Sep-19 11:30N 40°57' E 024°28'0 0.0
2017-Sep-19 11:00N 40°57' E 024°28'0 0.0
2017-Sep-19 10:30N 40°57' E 024°28'0 0.0
2017-Sep-19 10:00N 40°57' E 024°28'0 0.0
2017-Sep-19 09:30N 40°57' E 024°28'0 0.0
2017-Sep-19 09:00N 40°57' E 024°28'0 0.0
2017-Sep-19 08:30N 40°57' E 024°28'0 0.0
2017-Sep-19 08:00N 40°57' E 024°28'0 0.0
2017-Sep-19 07:30N 40°57' E 024°28'0 0.0
2017-Sep-19 07:00N 40°57' E 024°28'0 0.0
2017-Sep-19 06:30N 40°57' E 024°28'0 0.0
2017-Sep-19 06:00N 40°57' E 024°28'0 0.0
2017-Sep-19 05:30N 40°57' E 024°28'2 3.5
2017-Sep-19 05:00N 40°55' E 024°29'5 9.9
2017-Sep-19 04:30N 40°50' E 024°30'2 4.4
2017-Sep-19 04:00N 40°48' E 024°30'0 0.0
2017-Sep-19 03:30N 40°48' E 024°30'0 0.0
2017-Sep-19 02:56N 40°48' E 024°30'0 0.0
2017-Sep-19 02:26N 40°48' E 024°30'0 0.0
2017-Sep-19 01:59N 40°48' E 024°30'0 0.0
2017-Sep-19 01:26N 40°48' E 024°30'0 0.0
2017-Sep-19 00:56N 40°48' E 024°30'0 0.0
2017-Sep-19 00:29N 40°48' E 024°30'0 0.0
2017-Sep-18 23:56N 40°48' E 024°30'0 0.0
2017-Sep-18 23:29N 40°48' E 024°30'0 0.0
2017-Sep-18 22:56N 40°48' E 024°30'0 0.0
2017-Sep-18 22:29N 40°48' E 024°30'0 0.0
2017-Sep-18 21:59N 40°48' E 024°30'0 0.0
2017-Sep-18 21:29N 40°48' E 024°30'0 0.0
2017-Sep-18 20:59N 40°48' E 024°30'0 0.0
2017-Sep-18 20:29N 40°48' E 024°30'0 0.0
2017-Sep-18 19:59N 40°48' E 024°30'0 0.0
2017-Sep-18 19:29N 40°48' E 024°30'0 0.0
2017-Sep-18 18:59N 40°48' E 024°30'0 0.0
2017-Sep-18 18:29N 40°48' E 024°30'0 0.0
2017-Sep-18 17:59N 40°48' E 024°30'0 0.0
2017-Sep-18 17:29N 40°48' E 024°30'0 0.0
2017-Sep-18 16:59N 40°48' E 024°30'0 0.0
2017-Sep-18 16:29N 40°48' E 024°30'0 0.0
2017-Sep-18 15:59N 40°48' E 024°30'0 0.0
2017-Sep-18 15:29N 40°48' E 024°30'0 0.0
2017-Sep-18 14:59N 40°48' E 024°30'0 0.0
2017-Sep-18 14:29N 40°48' E 024°30'0 0.0
2017-Sep-18 13:59N 40°48' E 024°30'2 5.2
2017-Sep-18 13:31N 40°50' E 024°30'510.2
2017-Sep-18 13:01N 40°55' E 024°29'2 3.0
2017-Sep-18 12:30N 40°57' E 024°28'0 0.0
2017-Sep-18 12:01N 40°57' E 024°28'0 0.0
2017-Sep-18 11:31N 40°57' E 024°28'0 0.0
2017-Sep-18 11:00N 40°57' E 024°28'0 0.0
2017-Sep-18 10:31N 40°57' E 024°28'0 0.0
2017-Sep-18 10:00N 40°57' E 024°28'0 0.0
2017-Sep-18 09:30N 40°57' E 024°28'0 0.0
2017-Sep-18 09:01N 40°57' E 024°28'0 0.0
2017-Sep-18 08:30N 40°57' E 024°28'0 0.0
2017-Sep-18 08:01N 40°57' E 024°28'0 0.0
2017-Sep-18 07:30N 40°57' E 024°28'0 0.0
2017-Sep-18 07:01N 40°57' E 024°28'0 0.0
2017-Sep-18 06:31N 40°57' E 024°28'0 0.0
2017-Sep-18 06:00N 40°57' E 024°28'0 0.6
2017-Sep-18 05:31N 40°57' E 024°29'2 3.2
2017-Sep-18 05:01N 40°55' E 024°29'510.1
2017-Sep-18 04:30N 40°50' E 024°30'2 4.0
2017-Sep-18 03:58N 40°48' E 024°30'0 0.0
2017-Sep-18 03:28N 40°48' E 024°30'0 0.0
2017-Sep-18 02:58N 40°48' E 024°30'0 0.0
2017-Sep-18 02:28N 40°48' E 024°30'0 0.0
2017-Sep-18 01:58N 40°48' E 024°30'0 0.0
2017-Sep-18 01:28N 40°48' E 024°30'0 0.0
2017-Sep-18 00:58N 40°48' E 024°30'0 0.0
2017-Sep-18 00:28N 40°48' E 024°30'0 0.0
2017-Sep-17 23:58N 40°48' E 024°30'0 0.0
2017-Sep-17 23:28N 40°48' E 024°30'0 0.0
2017-Sep-17 22:58N 40°48' E 024°30'0 0.0
2017-Sep-17 22:28N 40°48' E 024°30'0 0.0
2017-Sep-17 21:58N 40°48' E 024°30'0 0.0
2017-Sep-17 21:28N 40°48' E 024°30'0 0.0
2017-Sep-17 20:58N 40°48' E 024°30'0 0.0
2017-Sep-17 20:28N 40°48' E 024°30'0 0.0
2017-Sep-17 19:58N 40°48' E 024°30'0 0.0
2017-Sep-17 19:28N 40°48' E 024°30'0 0.0
2017-Sep-17 18:58N 40°48' E 024°30'0 0.0
2017-Sep-17 18:28N 40°48' E 024°30'0 0.0
2017-Sep-17 17:58N 40°48' E 024°30'0 0.0
2017-Sep-17 17:28N 40°48' E 024°30'0 0.0
2017-Sep-17 16:58N 40°48' E 024°30'0 0.0
2017-Sep-17 16:28N 40°48' E 024°30'0 0.0
2017-Sep-17 15:58N 40°48' E 024°30'0 0.0
2017-Sep-17 15:28N 40°48' E 024°30'0 0.0
2017-Sep-17 14:58N 40°48' E 024°30'0 0.0
2017-Sep-17 14:28N 40°48' E 024°30'0 0.0
2017-Sep-17 13:58N 40°48' E 024°30'0 0.0
2017-Sep-17 13:28N 40°48' E 024°30'0 0.5
2017-Sep-17 13:00N 40°48' E 024°30'5 9.9
2017-Sep-17 12:30N 40°53' E 024°30'4 7.6
2017-Sep-17 12:00N 40°57' E 024°28'0 0.0
2017-Sep-17 11:30N 40°57' E 024°28'4 8.9
2017-Sep-17 11:00N 40°53' E 024°30'5 9.1
2017-Sep-17 10:30N 40°48' E 024°30'0 0.0
2017-Sep-17 10:00N 40°48' E 024°30'0 0.0
2017-Sep-17 09:30N 40°48' E 024°30'0 0.0
2017-Sep-17 09:00N 40°48' E 024°30'0 0.0
2017-Sep-17 08:30N 40°48' E 024°30'0 0.0
2017-Sep-17 08:00N 40°48' E 024°30'0 0.0
2017-Sep-17 07:30N 40°48' E 024°30'0 0.0
2017-Sep-17 07:00N 40°48' E 024°30'0 0.0
2017-Sep-17 06:30N 40°48' E 024°30'0 0.0
2017-Sep-17 06:00N 40°48' E 024°30'0 0.0
2017-Sep-17 05:30N 40°48' E 024°30'0 0.0
2017-Sep-17 05:00N 40°48' E 024°30'0 0.0
2017-Sep-17 04:30N 40°48' E 024°30'0 0.0
2017-Sep-17 04:00N 40°48' E 024°30'0 0.0
2017-Sep-17 03:30N 40°48' E 024°30'0 0.0
2017-Sep-17 03:00N 40°48' E 024°30'0 0.0
2017-Sep-17 02:30N 40°48' E 024°30'0 0.0
2017-Sep-17 02:00N 40°48' E 024°30'0 0.0
2017-Sep-17 01:30N 40°48' E 024°30'0 0.0
2017-Sep-17 01:00N 40°48' E 024°30'0 0.0
2017-Sep-17 00:30N 40°48' E 024°30'0 0.0
2017-Sep-17 00:00N 40°48' E 024°30'0 0.0
2017-Sep-16 23:30N 40°48' E 024°30'0 0.0
2017-Sep-16 23:00N 40°48' E 024°30'0 0.0
2017-Sep-16 22:30N 40°48' E 024°30'0 0.0
2017-Sep-16 22:00N 40°48' E 024°30'0 0.0
2017-Sep-16 21:30N 40°48' E 024°30'0 0.0
2017-Sep-16 21:00N 40°48' E 024°30'0 0.0
2017-Sep-16 20:30N 40°48' E 024°30'0 0.0
2017-Sep-16 20:00N 40°48' E 024°30'0 0.0
2017-Sep-16 19:30N 40°48' E 024°30'0 0.0
2017-Sep-16 19:00N 40°48' E 024°30'0 0.0
2017-Sep-16 18:30N 40°48' E 024°30'0 0.0
2017-Sep-16 18:00N 40°48' E 024°30'0 0.0
2017-Sep-16 17:30N 40°48' E 024°30'0 0.0
2017-Sep-16 17:00N 40°48' E 024°30'0 0.0
2017-Sep-16 16:30N 40°48' E 024°30'0 0.0
2017-Sep-16 16:00N 40°48' E 024°30'0 0.0
2017-Sep-16 15:30N 40°48' E 024°30'0 0.0
2017-Sep-16 15:00N 40°48' E 024°30'0 0.0
2017-Sep-16 14:30N 40°48' E 024°30'0 0.0
2017-Sep-16 14:00N 40°48' E 024°30'0 0.0
2017-Sep-16 13:30N 40°48' E 024°30'0 0.0
2017-Sep-16 13:00N 40°48' E 024°30'0 0.0
2017-Sep-16 12:30N 40°48' E 024°30'0 0.0
2017-Sep-16 12:00N 40°48' E 024°30'0 0.0
2017-Sep-16 11:30N 40°48' E 024°30'0 0.0
2017-Sep-16 11:00N 40°48' E 024°30'0 0.0
2017-Sep-16 10:30N 40°48' E 024°30'0 0.0
2017-Sep-16 10:00N 40°48' E 024°30'0 0.0
2017-Sep-16 09:30N 40°48' E 024°30'0 0.0
2017-Sep-16 09:00N 40°48' E 024°30'0 0.0
2017-Sep-16 08:30N 40°48' E 024°30'0 0.0
2017-Sep-16 08:00N 40°48' E 024°30'2 4.0
2017-Sep-16 07:30N 40°50' E 024°30'5 9.8
2017-Sep-16 07:00N 40°55' E 024°29'2 4.1
2017-Sep-16 06:30N 40°57' E 024°28'0 0.0
2017-Sep-16 06:00N 40°57' E 024°28'0 0.0
2017-Sep-16 05:30N 40°57' E 024°28'4 7.8
2017-Sep-16 05:00N 40°53' E 024°30'5 9.9
2017-Sep-16 04:30N 40°48' E 024°30'0 0.1
2017-Sep-16 03:54N 40°48' E 024°30'0 0.0
2017-Sep-16 03:27N 40°48' E 024°30'0 0.0
2017-Sep-16 03:00N 40°48' E 024°30'0 0.0
2017-Sep-16 02:30N 40°48' E 024°30'0 0.0
2017-Sep-16 02:00N 40°48' E 024°30'0 0.0
2017-Sep-16 01:30N 40°48' E 024°30'0 0.0
2017-Sep-16 01:00N 40°48' E 024°30'0 0.0
2017-Sep-16 00:27N 40°48' E 024°30'0 0.0
2017-Sep-15 23:57N 40°48' E 024°30'0 0.0
2017-Sep-15 23:30N 40°48' E 024°30'0 0.0
2017-Sep-15 23:00N 40°48' E 024°30'0 0.0
2017-Sep-15 22:30N 40°48' E 024°30'0 0.0
2017-Sep-15 22:00N 40°48' E 024°30'0 0.0
2017-Sep-15 21:30N 40°48' E 024°30'0 0.0
2017-Sep-15 21:00N 40°48' E 024°30'0 0.0
2017-Sep-15 20:30N 40°48' E 024°30'0 0.0
2017-Sep-15 20:00N 40°48' E 024°30'0 0.0
2017-Sep-15 19:30N 40°48' E 024°30'  
Track history (hours):
 
Tides and Currents Weather Stations Pressure Air Temp Water Temp Dewpoint Dewpoint Depression Visibility Wind Speed Wind Dir Waves Ship Positions

Valiant Energy

Last reported at 2017-Sep-25 19:00 UTC. Time now 2017-Sep-25 19:09 UTC.
Position N 40°48' E 024°30'.

Length 65 m.

Type: Ship (hazmat cat B). MMSI: 239885800.

Date/timePositionNaut miles runAvg speedWind from/ knotsBaromVisibWave heightAir tempDewpointWater temp
2017-Sep-25 19:00N 40°48' E 024°30'0 0.0
2017-Sep-25 18:30N 40°48' E 024°30'0 0.0
2017-Sep-25 18:00N 40°48' E 024°30'0 0.0
2017-Sep-25 17:30N 40°48' E 024°30'0 0.0
2017-Sep-25 17:00N 40°48' E 024°30'0 0.0
2017-Sep-25 16:30N 40°48' E 024°30'0 0.0
2017-Sep-25 16:00N 40°48' E 024°30'0 0.0
2017-Sep-25 15:30N 40°48' E 024°30'0 0.0
2017-Sep-25 15:00N 40°48' E 024°30'0 0.0
2017-Sep-25 14:30N 40°48' E 024°30'4 7.8
2017-Sep-25 14:00N 40°52' E 024°30'5 9.8
2017-Sep-25 13:30N 40°57' E 024°29'0 0.8
2017-Sep-25 13:00N 40°57' E 024°28'0 0.0
2017-Sep-25 12:30N 40°57' E 024°28'0 0.0
2017-Sep-25 12:00N 40°57' E 024°28'0 0.0
2017-Sep-25 11:30N 40°57' E 024°28'0 0.0
2017-Sep-25 11:00N 40°57' E 024°28'0 0.0
2017-Sep-25 10:30N 40°57' E 024°28'0 0.0
2017-Sep-25 10:00N 40°57' E 024°28'0 0.0
2017-Sep-25 09:30N 40°57' E 024°28'0 0.0
2017-Sep-25 09:00N 40°57' E 024°28'0 0.0
2017-Sep-25 08:30N 40°57' E 024°28'0 0.0
2017-Sep-25 08:00N 40°57' E 024°28'0 0.0
2017-Sep-25 07:30N 40°57' E 024°28'0 0.0
2017-Sep-25 07:00N 40°57' E 024°28'1 1.1
2017-Sep-25 06:30N 40°57' E 024°29'5 9.6
2017-Sep-25 06:00N 40°52' E 024°29'4 6.8
2017-Sep-25 05:28N 40°48' E 024°30'0 0.0
2017-Sep-25 04:58N 40°48' E 024°30'0 0.0
2017-Sep-25 04:28N 40°48' E 024°30'0 0.0
2017-Sep-25 03:57N 40°48' E 024°30'0 0.0
2017-Sep-25 03:24N 40°48' E 024°30'0 0.0
2017-Sep-25 02:51N 40°48' E 024°30'0 0.0
2017-Sep-25 02:21N 40°48' E 024°30'0 0.0
2017-Sep-25 01:57N 40°48' E 024°30'0 0.0
2017-Sep-25 01:27N 40°48' E 024°30'0 0.0
2017-Sep-25 00:51N 40°48' E 024°30'0 0.0
2017-Sep-25 00:15N 40°48' E 024°30'0 0.1
2017-Sep-25 00:00N 40°48' E 024°30'0 0.0
2017-Sep-24 23:27N 40°48' E 024°30'0 0.0
2017-Sep-24 22:57N 40°48' E 024°30'0 0.0
2017-Sep-24 22:30N 40°48' E 024°30'0 0.0
2017-Sep-24 22:00N 40°48' E 024°30'0 0.0
2017-Sep-24 21:30N 40°48' E 024°30'0 0.0
2017-Sep-24 21:00N 40°48' E 024°30'0 0.0
2017-Sep-24 20:30N 40°48' E 024°30'0 0.0
2017-Sep-24 20:00N 40°48' E 024°30'0 0.0
2017-Sep-24 19:30N 40°48' E 024°30'0 0.0
2017-Sep-24 19:00N 40°48' E 024°30'0 0.0
2017-Sep-24 18:30N 40°48' E 024°30'0 0.0
2017-Sep-24 18:00N 40°48' E 024°30'0 0.0
2017-Sep-24 17:30N 40°48' E 024°30'0 0.0
2017-Sep-24 17:00N 40°48' E 024°30'0 0.0
2017-Sep-24 16:30N 40°48' E 024°30'0 0.0
2017-Sep-24 16:00N 40°48' E 024°30'0 0.0
2017-Sep-24 15:30N 40°48' E 024°30'0 0.0
2017-Sep-24 15:00N 40°48' E 024°30'0 0.0
2017-Sep-24 14:30N 40°48' E 024°30'0 0.0
2017-Sep-24 14:00N 40°48' E 024°30'0 0.0
2017-Sep-24 13:30N 40°48' E 024°30'0 0.0
2017-Sep-24 13:00N 40°48' E 024°30'0 0.0
2017-Sep-24 12:30N 40°48' E 024°30'0 0.0
2017-Sep-24 12:00N 40°48' E 024°30'0 0.0
2017-Sep-24 11:30N 40°48' E 024°30'0 0.0
2017-Sep-24 11:00N 40°48' E 024°30'2 3.2
2017-Sep-24 10:30N 40°50' E 024°30'510.0
2017-Sep-24 10:00N 40°55' E 024°29'2 4.7
2017-Sep-24 09:30N 40°57' E 024°28'0 0.0
2017-Sep-24 09:00N 40°57' E 024°28'0 0.0
2017-Sep-24 08:30N 40°57' E 024°28'0 0.0
2017-Sep-24 08:00N 40°57' E 024°28'0 0.0
2017-Sep-24 07:30N 40°57' E 024°28'0 0.0
2017-Sep-24 07:00N 40°57' E 024°28'0 0.0
2017-Sep-24 06:30N 40°57' E 024°28'0 0.0
2017-Sep-24 06:00N 40°57' E 024°28'0 0.0
2017-Sep-24 05:30N 40°57' E 024°28'3 5.4
2017-Sep-24 05:00N 40°54' E 024°29'510.0
2017-Sep-24 04:30N 40°49' E 024°30'1 2.5
2017-Sep-24 04:00N 40°48' E 024°30'0 0.0
2017-Sep-24 03:27N 40°48' E 024°30'0 0.0
2017-Sep-24 03:00N 40°48' E 024°30'0 0.0
2017-Sep-24 02:27N 40°48' E 024°30'0 0.0
2017-Sep-24 02:00N 40°48' E 024°30'0 0.0
2017-Sep-24 01:30N 40°48' E 024°30'0 0.0
2017-Sep-24 01:00N 40°48' E 024°30'0 0.0
2017-Sep-24 00:27N 40°48' E 024°30'0 0.0
2017-Sep-23 23:57N 40°48' E 024°30'0 0.0
2017-Sep-23 23:30N 40°48' E 024°30'0 0.0
2017-Sep-23 23:00N 40°48' E 024°30'0 0.0
2017-Sep-23 22:30N 40°48' E 024°30'0 0.0
2017-Sep-23 22:00N 40°48' E 024°30'0 0.0
2017-Sep-23 21:30N 40°48' E 024°30'0 0.0
2017-Sep-23 21:00N 40°48' E 024°30'0 0.0
2017-Sep-23 20:30N 40°48' E 024°30'0 0.0
2017-Sep-23 20:00N 40°48' E 024°30'0 0.0
2017-Sep-22 01:59N 40°48' E 024°30'0 0.0
2017-Sep-22 01:29N 40°48' E 024°30'0 0.0
2017-Sep-22 00:59N 40°48' E 024°30'0 0.0
2017-Sep-22 00:23N 40°48' E 024°30'0 0.0
2017-Sep-21 23:56N 40°48' E 024°30'0 0.0
2017-Sep-21 23:29N 40°48' E 024°30'0 0.0
2017-Sep-21 22:58N 40°48' E 024°30'0 0.0
2017-Sep-21 22:28N 40°48' E 024°30'0 0.0
2017-Sep-21 21:58N 40°48' E 024°30'0 0.0
2017-Sep-21 21:28N 40°48' E 024°30'0 0.0
2017-Sep-21 20:58N 40°48' E 024°30'0 0.0
2017-Sep-21 20:28N 40°48' E 024°30'0 0.0
2017-Sep-21 19:58N 40°48' E 024°30'0 0.0
2017-Sep-21 19:28N 40°48' E 024°30'0 0.0
2017-Sep-21 18:55N 40°48' E 024°30'0 0.0
2017-Sep-21 18:28N 40°48' E 024°30'0 0.0
2017-Sep-21 17:58N 40°48' E 024°30'0 0.0
2017-Sep-21 17:28N 40°48' E 024°30'0 0.0
2017-Sep-21 16:58N 40°48' E 024°30'0 0.0
2017-Sep-21 16:28N 40°48' E 024°30'0 0.0
2017-Sep-21 15:58N 40°48' E 024°30'0 0.0
2017-Sep-21 15:28N 40°48' E 024°30'0 0.0
2017-Sep-21 14:58N 40°48' E 024°30'0 0.0
2017-Sep-21 14:28N 40°48' E 024°30'0 0.0
2017-Sep-21 13:58N 40°48' E 024°30'0 0.0
2017-Sep-21 13:28N 40°48' E 024°30'0 0.6
2017-Sep-21 13:00N 40°48' E 024°30'0 0.5
2017-Sep-21 12:30N 40°48' E 024°30'0 0.9
2017-Sep-21 12:00N 40°48' E 024°30'0 0.0
2017-Sep-21 11:30N 40°48' E 024°30'4 8.4
2017-Sep-21 11:00N 40°52' E 024°30'5 9.3
2017-Sep-21 10:30N 40°57' E 024°28'0 0.2
2017-Sep-21 10:00N 40°57' E 024°28'0 0.0
2017-Sep-21 09:30N 40°57' E 024°28'0 0.0
2017-Sep-21 09:00N 40°57' E 024°28'0 0.0
2017-Sep-21 08:30N 40°57' E 024°28'0 0.0
2017-Sep-21 08:00N 40°57' E 024°28'0 0.0
2017-Sep-21 07:31N 40°57' E 024°28'0 0.0
2017-Sep-21 07:00N 40°57' E 024°28'0 0.0
2017-Sep-21 06:31N 40°57' E 024°28'0 0.2
2017-Sep-21 06:00N 40°57' E 024°28'5 9.2
2017-Sep-21 05:31N 40°52' E 024°30'4 8.5
2017-Sep-21 05:00N 40°48' E 024°30'0 0.1
2017-Sep-21 04:30N 40°48' E 024°30'1 1.3
2017-Sep-21 04:00N 40°48' E 024°29'0 0.0
2017-Sep-21 03:30N 40°48' E 024°29'0 0.0
2017-Sep-21 03:00N 40°48' E 024°29'0 0.0
2017-Sep-21 02:31N 40°48' E 024°29'0 0.0
2017-Sep-21 02:00N 40°48' E 024°29'0 0.0
2017-Sep-21 01:30N 40°48' E 024°29'0 0.0
2017-Sep-21 01:00N 40°48' E 024°29'0 0.0
2017-Sep-21 00:30N 40°48' E 024°29'0 0.0
2017-Sep-21 00:01N 40°48' E 024°29'0 0.0
2017-Sep-20 23:05N 40°48' E 024°29'0 0.1
2017-Sep-20 23:00N 40°48' E 024°29'0 0.0
2017-Sep-20 22:30N 40°48' E 024°29'0 0.0
2017-Sep-20 22:00N 40°48' E 024°29'0 0.0
2017-Sep-20 21:30N 40°48' E 024°29'0 0.0
2017-Sep-20 21:00N 40°48' E 024°29'0 0.1
2017-Sep-20 20:30N 40°48' E 024°29'1 1.4
2017-Sep-20 19:59N 40°48' E 024°30'0 0.0
2017-Sep-20 19:29N 40°48' E 024°30'0 0.0
2017-Sep-20 18:59N 40°48' E 024°30'0 0.0
2017-Sep-20 18:29N 40°48' E 024°30'0 0.0
2017-Sep-20 17:59N 40°48' E 024°30'0 0.0
2017-Sep-20 17:29N 40°48' E 024°30'0 0.0
2017-Sep-20 16:59N 40°48' E 024°30'0 0.0
2017-Sep-20 16:29N 40°48' E 024°30'0 0.2
2017-Sep-20 16:00N 40°48' E 024°30'1 2.4
2017-Sep-20 15:30N 40°49' E 024°30'5 9.9
2017-Sep-20 15:00N 40°54' E 024°29'3 2.8
2017-Sep-20 14:00N 40°57' E 024°28'0 0.0
2017-Sep-20 13:30N 40°57' E 024°28'0 0.0
2017-Sep-20 13:00N 40°57' E 024°28'0 0.0
2017-Sep-20 12:30N 40°57' E 024°28'0 0.0
2017-Sep-20 12:00N 40°57' E 024°28'0 0.0
2017-Sep-20 11:28N 40°57' E 024°28'0 0.0
2017-Sep-20 11:00N 40°57' E 024°28'0 0.0
2017-Sep-20 10:30N 40°57' E 024°28'0 0.0
2017-Sep-20 10:00N 40°57' E 024°28'0 0.0
2017-Sep-20 09:30N 40°57' E 024°28'0 0.0
2017-Sep-20 09:00N 40°57' E 024°28'0 0.0
2017-Sep-20 08:30N 40°57' E 024°28'0 0.0
2017-Sep-20 08:00N 40°57' E 024°28'0 0.0
2017-Sep-20 07:30N 40°57' E 024°28'0 0.0
2017-Sep-20 07:00N 40°57' E 024°28'0 0.0
2017-Sep-20 06:30N 40°57' E 024°28'0 0.0
2017-Sep-20 06:00N 40°57' E 024°28'2 4.5
2017-Sep-20 05:30N 40°55' E 024°29'510.3
2017-Sep-20 05:00N 40°50' E 024°30'2 3.1
2017-Sep-20 04:30N 40°48' E 024°30'0 0.0
2017-Sep-20 04:00N 40°48' E 024°30'0 0.0
2017-Sep-20 03:30N 40°48' E 024°30'0 0.0
2017-Sep-20 03:00N 40°48' E 024°30'0 0.0
2017-Sep-20 02:30N 40°48' E 024°30'0 0.0
2017-Sep-20 02:00N 40°48' E 024°30'0 0.0
2017-Sep-20 01:30N 40°48' E 024°30'0 0.0
2017-Sep-20 01:00N 40°48' E 024°30'0 0.0
2017-Sep-20 00:30N 40°48' E 024°30'0 0.0
2017-Sep-19 23:57N 40°48' E 024°30'0 0.0
2017-Sep-19 23:30N 40°48' E 024°30'0 0.0
2017-Sep-19 22:57N 40°48' E 024°30'0 0.0
2017-Sep-19 22:30N 40°48' E 024°30'0 0.0
2017-Sep-19 22:00N 40°48' E 024°30'0 0.0
2017-Sep-19 21:30N 40°48' E 024°30'0 0.0
2017-Sep-19 21:00N 40°48' E 024°30'0 0.0
2017-Sep-19 20:30N 40°48' E 024°30'0 0.0
2017-Sep-19 20:00N 40°48' E 024°30'0 0.0
2017-Sep-19 19:30N 40°48' E 024°30'0 0.0
2017-Sep-19 19:00N 40°48' E 024°30'0 0.0
2017-Sep-19 18:30N 40°48' E 024°30'0 0.0
2017-Sep-19 18:00N 40°48' E 024°30'0 0.0
2017-Sep-19 17:30N 40°48' E 024°30'0 0.0
2017-Sep-19 17:00N 40°48' E 024°30'0 0.0
2017-Sep-19 16:30N 40°48' E 024°30'0 0.0
2017-Sep-19 16:00N 40°48' E 024°30'0 0.0
2017-Sep-19 15:30N 40°48' E 024°30'0 0.1
2017-Sep-19 15:01N 40°48' E 024°30'5 9.6
2017-Sep-19 14:30N 40°53' E 024°30'4 8.3
2017-Sep-19 14:00N 40°57' E 024°28'0 0.0
2017-Sep-19 13:30N 40°57' E 024°28'0 0.0
2017-Sep-19 13:00N 40°57' E 024°28'0 0.0
2017-Sep-19 12:30N 40°57' E 024°28'0 0.0
2017-Sep-19 12:00N 40°57' E 024°28'0 0.0
2017-Sep-19 11:30N 40°57' E 024°28'0 0.0
2017-Sep-19 11:00N 40°57' E 024°28'0 0.0
2017-Sep-19 10:30N 40°57' E 024°28'0 0.0
2017-Sep-19 10:00N 40°57' E 024°28'0 0.0
2017-Sep-19 09:30N 40°57' E 024°28'0 0.0
2017-Sep-19 09:00N 40°57' E 024°28'0 0.0
2017-Sep-19 08:30N 40°57' E 024°28'0 0.0
2017-Sep-19 08:00N 40°57' E 024°28'0 0.0
2017-Sep-19 07:30N 40°57' E 024°28'0 0.0
2017-Sep-19 07:00N 40°57' E 024°28'0 0.0
2017-Sep-19 06:30N 40°57' E 024°28'0 0.0
2017-Sep-19 06:00N 40°57' E 024°28'0 0.0
2017-Sep-19 05:30N 40°57' E 024°28'2 3.5
2017-Sep-19 05:00N 40°55' E 024°29'5 9.9
2017-Sep-19 04:30N 40°50' E 024°30'2 4.4
2017-Sep-19 04:00N 40°48' E 024°30'0 0.0
2017-Sep-19 03:30N 40°48' E 024°30'0 0.0
2017-Sep-19 02:56N 40°48' E 024°30'0 0.0
2017-Sep-19 02:26N 40°48' E 024°30'0 0.0
2017-Sep-19 01:59N 40°48' E 024°30'0 0.0
2017-Sep-19 01:26N 40°48' E 024°30'0 0.0
2017-Sep-19 00:56N 40°48' E 024°30'0 0.0
2017-Sep-19 00:29N 40°48' E 024°30'0 0.0
2017-Sep-18 23:56N 40°48' E 024°30'0 0.0
2017-Sep-18 23:29N 40°48' E 024°30'0 0.0
2017-Sep-18 22:56N 40°48' E 024°30'0 0.0
2017-Sep-18 22:29N 40°48' E 024°30'0 0.0
2017-Sep-18 21:59N 40°48' E 024°30'0 0.0
2017-Sep-18 21:29N 40°48' E 024°30'0 0.0
2017-Sep-18 20:59N 40°48' E 024°30'0 0.0
2017-Sep-18 20:29N 40°48' E 024°30'0 0.0
2017-Sep-18 19:59N 40°48' E 024°30'0 0.0
2017-Sep-18 19:29N 40°48' E 024°30'0 0.0
2017-Sep-18 18:59N 40°48' E 024°30'0 0.0
2017-Sep-18 18:29N 40°48' E 024°30'0 0.0
2017-Sep-18 17:59N 40°48' E 024°30'0 0.0
2017-Sep-18 17:29N 40°48' E 024°30'0 0.0
2017-Sep-18 16:59N 40°48' E 024°30'0 0.0
2017-Sep-18 16:29N 40°48' E 024°30'0 0.0
2017-Sep-18 15:59N 40°48' E 024°30'0 0.0
2017-Sep-18 15:29N 40°48' E 024°30'0 0.0
2017-Sep-18 14:59N 40°48' E 024°30'0 0.0
2017-Sep-18 14:29N 40°48' E 024°30'0 0.0
2017-Sep-18 13:59N 40°48' E 024°30'2 5.2
2017-Sep-18 13:31N 40°50' E 024°30'510.2
2017-Sep-18 13:01N 40°55' E 024°29'2 3.0
2017-Sep-18 12:30N 40°57' E 024°28'0 0.0
2017-Sep-18 12:01N 40°57' E 024°28'0 0.0
2017-Sep-18 11:31N 40°57' E 024°28'0 0.0
2017-Sep-18 11:00N 40°57' E 024°28'0 0.0
2017-Sep-18 10:31N 40°57' E 024°28'0 0.0
2017-Sep-18 10:00N 40°57' E 024°28'0 0.0
2017-Sep-18 09:30N 40°57' E 024°28'0 0.0
2017-Sep-18 09:01N 40°57' E 024°28'0 0.0
2017-Sep-18 08:30N 40°57' E 024°28'0 0.0
2017-Sep-18 08:01N 40°57' E 024°28'0 0.0
2017-Sep-18 07:30N 40°57' E 024°28'0 0.0
2017-Sep-18 07:01N 40°57' E 024°28'0 0.0
2017-Sep-18 06:31N 40°57' E 024°28'0 0.0
2017-Sep-18 06:00N 40°57' E 024°28'0 0.6
2017-Sep-18 05:31N 40°57' E 024°29'2 3.2
2017-Sep-18 05:01N 40°55' E 024°29'510.1
2017-Sep-18 04:30N 40°50' E 024°30'2 4.0
2017-Sep-18 03:58N 40°48' E 024°30'0 0.0
2017-Sep-18 03:28N 40°48' E 024°30'0 0.0
2017-Sep-18 02:58N 40°48' E 024°30'0 0.0
2017-Sep-18 02:28N 40°48' E 024°30'0 0.0
2017-Sep-18 01:58N 40°48' E 024°30'0 0.0
2017-Sep-18 01:28N 40°48' E 024°30'0 0.0
2017-Sep-18 00:58N 40°48' E 024°30'0 0.0
2017-Sep-18 00:28N 40°48' E 024°30'0 0.0
2017-Sep-17 23:58N 40°48' E 024°30'0 0.0
2017-Sep-17 23:28N 40°48' E 024°30'0 0.0
2017-Sep-17 22:58N 40°48' E 024°30'0 0.0
2017-Sep-17 22:28N 40°48' E 024°30'0 0.0
2017-Sep-17 21:58N 40°48' E 024°30'0 0.0
2017-Sep-17 21:28N 40°48' E 024°30'0 0.0
2017-Sep-17 20:58N 40°48' E 024°30'0 0.0
2017-Sep-17 20:28N 40°48' E 024°30'0 0.0
2017-Sep-17 19:58N 40°48' E 024°30'0 0.0
2017-Sep-17 19:28N 40°48' E 024°30'0 0.0
2017-Sep-17 18:58N 40°48' E 024°30'0 0.0
2017-Sep-17 18:28N 40°48' E 024°30'0 0.0
2017-Sep-17 17:58N 40°48' E 024°30'0 0.0
2017-Sep-17 17:28N 40°48' E 024°30'0 0.0
2017-Sep-17 16:58N 40°48' E 024°30'0 0.0
2017-Sep-17 16:28N 40°48' E 024°30'0 0.0
2017-Sep-17 15:58N 40°48' E 024°30'0 0.0
2017-Sep-17 15:28N 40°48' E 024°30'0 0.0
2017-Sep-17 14:58N 40°48' E 024°30'0 0.0
2017-Sep-17 14:28N 40°48' E 024°30'0 0.0
2017-Sep-17 13:58N 40°48' E 024°30'0 0.0
2017-Sep-17 13:28N 40°48' E 024°30'0 0.5
2017-Sep-17 13:00N 40°48' E 024°30'5 9.9
2017-Sep-17 12:30N 40°53' E 024°30'4 7.6
2017-Sep-17 12:00N 40°57' E 024°28'0 0.0
2017-Sep-17 11:30N 40°57' E 024°28'4 8.9
2017-Sep-17 11:00N 40°53' E 024°30'5 9.1
2017-Sep-17 10:30N 40°48' E 024°30'0 0.0
2017-Sep-17 10:00N 40°48' E 024°30'0 0.0
2017-Sep-17 09:30N 40°48' E 024°30'0 0.0
2017-Sep-17 09:00N 40°48' E 024°30'0 0.0
2017-Sep-17 08:30N 40°48' E 024°30'0 0.0
2017-Sep-17 08:00N 40°48' E 024°30'0 0.0
2017-Sep-17 07:30N 40°48' E 024°30'0 0.0
2017-Sep-17 07:00N 40°48' E 024°30'0 0.0
2017-Sep-17 06:30N 40°48' E 024°30'0 0.0
2017-Sep-17 06:00N 40°48' E 024°30'0 0.0
2017-Sep-17 05:30N 40°48' E 024°30'0 0.0
2017-Sep-17 05:00N 40°48' E 024°30'0 0.0
2017-Sep-17 04:30N 40°48' E 024°30'0 0.0
2017-Sep-17 04:00N 40°48' E 024°30'0 0.0
2017-Sep-17 03:30N 40°48' E 024°30'0 0.0
2017-Sep-17 03:00N 40°48' E 024°30'0 0.0
2017-Sep-17 02:30N 40°48' E 024°30'0 0.0
2017-Sep-17 02:00N 40°48' E 024°30'0 0.0
2017-Sep-17 01:30N 40°48' E 024°30'0 0.0
2017-Sep-17 01:00N 40°48' E 024°30'0 0.0
2017-Sep-17 00:30N 40°48' E 024°30'0 0.0
2017-Sep-17 00:00N 40°48' E 024°30'0 0.0
2017-Sep-16 23:30N 40°48' E 024°30'0 0.0
2017-Sep-16 23:00N 40°48' E 024°30'0 0.0
2017-Sep-16 22:30N 40°48' E 024°30'0 0.0
2017-Sep-16 22:00N 40°48' E 024°30'0 0.0
2017-Sep-16 21:30N 40°48' E 024°30'0 0.0
2017-Sep-16 21:00N 40°48' E 024°30'0 0.0
2017-Sep-16 20:30N 40°48' E 024°30'0 0.0
2017-Sep-16 20:00N 40°48' E 024°30'0 0.0
2017-Sep-16 19:30N 40°48' E 024°30'0 0.0
2017-Sep-16 19:00N 40°48' E 024°30'0 0.0
2017-Sep-16 18:30N 40°48' E 024°30'0 0.0
2017-Sep-16 18:00N 40°48' E 024°30'0 0.0
2017-Sep-16 17:30N 40°48' E 024°30'0 0.0
2017-Sep-16 17:00N 40°48' E 024°30'0 0.0
2017-Sep-16 16:30N 40°48' E 024°30'0 0.0
2017-Sep-16 16:00N 40°48' E 024°30'0 0.0
2017-Sep-16 15:30N 40°48' E 024°30'0 0.0
2017-Sep-16 15:00N 40°48' E 024°30'0 0.0
2017-Sep-16 14:30N 40°48' E 024°30'0 0.0
2017-Sep-16 14:00N 40°48' E 024°30'0 0.0
2017-Sep-16 13:30N 40°48' E 024°30'0 0.0
2017-Sep-16 13:00N 40°48' E 024°30'0 0.0
2017-Sep-16 12:30N 40°48' E 024°30'0 0.0
2017-Sep-16 12:00N 40°48' E 024°30'0 0.0
2017-Sep-16 11:30N 40°48' E 024°30'0 0.0
2017-Sep-16 11:00N 40°48' E 024°30'0 0.0
2017-Sep-16 10:30N 40°48' E 024°30'0 0.0
2017-Sep-16 10:00N 40°48' E 024°30'0 0.0
2017-Sep-16 09:30N 40°48' E 024°30'0 0.0
2017-Sep-16 09:00N 40°48' E 024°30'0 0.0
2017-Sep-16 08:30N 40°48' E 024°30'0 0.0
2017-Sep-16 08:00N 40°48' E 024°30'2 4.0
2017-Sep-16 07:30N 40°50' E 024°30'5 9.8
2017-Sep-16 07:00N 40°55' E 024°29'2 4.1
2017-Sep-16 06:30N 40°57' E 024°28'0 0.0
2017-Sep-16 06:00N 40°57' E 024°28'0 0.0
2017-Sep-16 05:30N 40°57' E 024°28'4 7.8
2017-Sep-16 05:00N 40°53' E 024°30'5 9.9
2017-Sep-16 04:30N 40°48' E 024°30'0 0.1
2017-Sep-16 03:54N 40°48' E 024°30'0 0.0
2017-Sep-16 03:27N 40°48' E 024°30'0 0.0
2017-Sep-16 03:00N 40°48' E 024°30'0 0.0
2017-Sep-16 02:30N 40°48' E 024°30'0 0.0
2017-Sep-16 02:00N 40°48' E 024°30'0 0.0
2017-Sep-16 01:30N 40°48' E 024°30'0 0.0
2017-Sep-16 01:00N 40°48' E 024°30'0 0.0
2017-Sep-16 00:27N 40°48' E 024°30'0 0.0
2017-Sep-15 23:57N 40°48' E 024°30'0 0.0
2017-Sep-15 23:30N 40°48' E 024°30'0 0.0
2017-Sep-15 23:00N 40°48' E 024°30'0 0.0
2017-Sep-15 22:30N 40°48' E 024°30'0 0.0
2017-Sep-15 22:00N 40°48' E 024°30'0 0.0
2017-Sep-15 21:30N 40°48' E 024°30'0 0.0
2017-Sep-15 21:00N 40°48' E 024°30'0 0.0
2017-Sep-15 20:30N 40°48' E 024°30'0 0.0
2017-Sep-15 20:00N 40°48' E 024°30'0 0.0
2017-Sep-15 19:30N 40°48' E 024°30'  

Dump ship's entire track history